Time;durP1;ratioP1;P1;durP2;ratioP2;P2;SDS_P1;SDS_P2;PMS_P1;PMS_P2;Temp;Humidity;BMP_temperature;BMP_pressure;BME280_temperature;BME280_humidity;BME280_pressure;Samples;Min_cycle;Max_cycle;Signal;HPM_P1;HPM_P2
2023/06/04 00:01:27;;;;;;;3.70;1.30;;;;;;;;;;5005991;28;20190;-70
2023/06/04 00:03:53;;;;;;;2.40;1.60;;;;;;;;;;5040108;22;20233;-74
2023/06/04 00:06:18;;;;;;;2.38;1.10;;;;;;;;;;5048102;28;20189;-75
2023/06/04 00:08:43;;;;;;;2.70;1.00;;;;;;;;;;5047593;28;20203;-75
2023/06/04 00:11:08;;;;;;;1.23;1.00;;;;;;;;;;5045339;28;20257;-76
2023/06/04 00:13:33;;;;;;;1.58;1.05;;;;;;;;;;5026797;28;20200;-75
2023/06/04 00:15:59;;;;;;;1.75;0.80;;;;;;;;;;5028485;28;20182;-75
2023/06/04 00:18:24;;;;;;;1.77;1.10;;;;;;;;;;5031981;28;20221;-74
2023/06/04 00:20:49;;;;;;;3.67;1.25;;;;;;;;;;5030975;28;20228;-75
2023/06/04 00:23:14;;;;;;;1.10;0.90;;;;;;;;;;5031842;28;20186;-75
2023/06/04 00:25:39;;;;;;;1.83;1.02;;;;;;;;;;5028412;28;20178;-74
2023/06/04 00:28:05;;;;;;;3.17;1.00;;;;;;;;;;5027422;28;20177;-77
2023/06/04 00:30:30;;;;;;;2.28;0.90;;;;;;;;;;5029080;28;20190;-76
2023/06/04 00:32:56;;;;;;;0.80;0.77;;;;;;;;;;5029733;28;20174;-76
2023/06/04 00:35:21;;;;;;;1.00;0.80;;;;;;;;;;5000864;28;20197;-76
2023/06/04 00:37:46;;;;;;;1.55;0.88;;;;;;;;;;5031492;28;20253;-76
2023/06/04 00:40:12;;;;;;;5.57;1.52;;;;;;;;;;5028941;28;20241;-76
2023/06/04 00:42:37;;;;;;;2.00;1.00;;;;;;;;;;5031878;28;20170;-76
2023/06/04 00:45:03;;;;;;;3.07;1.47;;;;;;;;;;5025901;28;20272;-76
2023/06/04 00:47:28;;;;;;;1.15;1.00;;;;;;;;;;5032248;28;20186;-75
2023/06/04 00:49:56;;;;;;;2.60;1.10;;;;;;;;;;5032956;28;20228;-76
2023/06/04 00:52:21;;;;;;;2.50;0.95;;;;;;;;;;5031781;28;20545;-76
2023/06/04 00:54:46;;;;;;;1.20;1.10;;;;;;;;;;5029793;28;20266;-75
2023/06/04 00:57:11;;;;;;;3.92;1.25;;;;;;;;;;5027473;28;20182;-76
2023/06/04 00:59:38;;;;;;;2.57;1.00;;;;;;;;;;5027136;28;20463;-76
2023/06/04 01:02:07;;;;;;;2.45;1.38;;;;;;;;;;5027765;28;20249;-76
2023/06/04 01:04:36;;;;;;;3.45;1.15;;;;;;;;;;5012493;28;20308;-76
2023/06/04 01:07:03;;;;;;;1.40;0.93;;;;;;;;;;5026016;28;20209;-76
2023/06/04 01:09:28;;;;;;;4.40;1.40;;;;;;;;;;5027386;28;20206;-76
2023/06/04 01:11:54;;;;;;;2.67;1.20;;;;;;;;;;5032070;28;20492;-76
2023/06/04 01:14:19;;;;;;;1.70;1.00;;;;;;;;;;5030017;28;20193;-76
2023/06/04 01:17:02;;;;;;;1.80;1.27;;;;;;;;;;5016363;28;20166;-76
2023/06/04 01:19:34;;;;;;;1.65;1.00;;;;;;;;;;5032180;28;20670;-76
2023/06/04 01:22:03;;;;;;;2.07;1.17;;;;;;;;;;5032787;28;20182;-76
2023/06/04 01:24:29;;;;;;;2.40;1.10;;;;;;;;;;5032690;28;20268;-76
2023/06/04 01:26:55;;;;;;;3.83;1.10;;;;;;;;;;5026939;28;20178;-76
2023/06/04 01:29:22;;;;;;;1.53;1.20;;;;;;;;;;5032473;28;20206;-76
2023/06/04 01:31:49;;;;;;;1.45;0.90;;;;;;;;;;5030985;28;20170;-76
2023/06/04 01:34:14;;;;;;;1.60;1.20;;;;;;;;;;5031655;28;20182;-76
2023/06/04 01:36:39;;;;;;;1.40;1.10;;;;;;;;;;5030484;28;20171;-76
2023/06/04 01:39:05;;;;;;;4.82;1.20;;;;;;;;;;5035273;28;20186;-76
2023/06/04 01:41:30;;;;;;;1.67;1.00;;;;;;;;;;5034460;28;20178;-76
2023/06/04 01:43:55;;;;;;;1.37;1.13;;;;;;;;;;5034454;28;20209;-76
2023/06/04 01:46:20;;;;;;;4.10;1.17;;;;;;;;;;5033791;28;20178;-76
2023/06/04 01:48:48;;;;;;;3.63;1.40;;;;;;;;;;5035701;28;20722;-76
2023/06/04 01:51:13;;;;;;;5.27;1.23;;;;;;;;;;5033383;28;20178;-75
2023/06/04 01:53:39;;;;;;;5.90;1.53;;;;;;;;;;5032003;28;20201;-75
2023/06/04 01:56:04;;;;;;;1.40;1.10;;;;;;;;;;5013990;28;20232;-75
2023/06/04 01:58:31;;;;;;;1.53;1.00;;;;;;;;;;5011344;28;20179;-75
2023/06/04 02:01:00;;;;;;;2.67;1.10;;;;;;;;;;5014900;28;20185;-76
2023/06/04 02:03:25;;;;;;;4.23;1.27;;;;;;;;;;5033802;28;20225;-75
2023/06/04 02:05:50;;;;;;;3.30;1.23;;;;;;;;;;5028273;28;20183;-75
2023/06/04 02:08:20;;;;;;;2.07;1.20;;;;;;;;;;5032409;28;20591;-75
2023/06/04 02:10:46;;;;;;;2.83;1.37;;;;;;;;;;5013799;28;20171;-76
2023/06/04 02:13:11;;;;;;;1.63;1.20;;;;;;;;;;5034540;28;20167;-75
2023/06/04 02:15:37;;;;;;;1.30;1.10;;;;;;;;;;5026479;28;20339;-76
2023/06/04 02:18:15;;;;;;;2.53;1.30;;;;;;;;;;5025579;28;20175;-75
2023/06/04 02:20:40;;;;;;;3.90;1.10;;;;;;;;;;5033308;28;20174;-75
2023/06/04 02:23:06;;;;;;;2.30;1.10;;;;;;;;;;5031532;28;20308;-75
2023/06/04 02:25:31;;;;;;;1.27;0.90;;;;;;;;;;5031785;28;20332;-75
2023/06/04 02:27:56;;;;;;;3.30;1.37;;;;;;;;;;5025609;28;20161;-76
2023/06/04 02:30:21;;;;;;;2.30;1.30;;;;;;;;;;5028588;28;20182;-75
2023/06/04 02:32:50;;;;;;;2.63;2.00;;;;;;;;;;5029068;28;20180;-75
2023/06/04 02:35:15;;;;;;;2.13;1.10;;;;;;;;;;5025972;28;20239;-75
2023/06/04 02:37:41;;;;;;;2.17;1.43;;;;;;;;;;5031577;28;20224;-75
2023/06/04 02:40:06;;;;;;;1.30;1.10;;;;;;;;;;5032947;28;20569;-75
2023/06/04 02:42:31;;;;;;;3.20;1.33;;;;;;;;;;5034363;28;20663;-75
2023/06/04 02:44:57;;;;;;;2.33;1.60;;;;;;;;;;5034078;28;20201;-75
2023/06/04 02:47:22;;;;;;;1.30;1.10;;;;;;;;;;5034175;28;20253;-75
2023/06/04 02:49:47;;;;;;;3.27;1.50;;;;;;;;;;5033050;28;20253;-75
2023/06/04 02:52:13;;;;;;;2.40;1.23;;;;;;;;;;5012664;28;20266;-76
2023/06/04 02:54:38;;;;;;;1.67;1.23;;;;;;;;;;5028591;28;20217;-77
2023/06/04 02:57:03;;;;;;;2.47;1.20;;;;;;;;;;5032984;28;20181;-76
2023/06/04 02:59:28;;;;;;;3.73;1.20;;;;;;;;;;5017169;28;20214;-76
2023/06/04 03:01:54;;;;;;;3.77;1.60;;;;;;;;;;5016748;28;20316;-76
2023/06/04 03:04:20;;;;;;;3.43;1.40;;;;;;;;;;5032226;28;20221;-76
2023/06/04 03:06:46;;;;;;;1.77;1.10;;;;;;;;;;5032632;28;20212;-76
2023/06/04 03:09:11;;;;;;;2.73;1.40;;;;;;;;;;5030905;28;20178;-76
2023/06/04 03:11:37;;;;;;;3.07;1.30;;;;;;;;;;5034381;28;20193;-76
2023/06/04 03:14:02;;;;;;;1.47;1.30;;;;;;;;;;5028830;28;20226;-76
2023/06/04 03:16:27;;;;;;;2.80;1.10;;;;;;;;;;5016018;28;20244;-76
2023/06/04 03:18:52;;;;;;;7.03;1.60;;;;;;;;;;5030637;28;20745;-75
2023/06/04 03:21:18;;;;;;;1.63;1.10;;;;;;;;;;5027933;28;20189;-75
2023/06/04 03:23:43;;;;;;;2.37;1.53;;;;;;;;;;5031299;28;20211;-76
2023/06/04 03:26:08;;;;;;;2.20;1.37;;;;;;;;;;5029417;28;20187;-76
2023/06/04 03:28:33;;;;;;;1.30;1.03;;;;;;;;;;5025683;28;20185;-76
2023/06/04 03:30:59;;;;;;;1.70;1.30;;;;;;;;;;5031576;28;20186;-76
2023/06/04 03:33:24;;;;;;;1.40;1.20;;;;;;;;;;5033358;28;20202;-75
2023/06/04 03:35:50;;;;;;;2.50;1.27;;;;;;;;;;5014740;28;20174;-76
2023/06/04 03:38:16;;;;;;;2.57;1.27;;;;;;;;;;5023929;28;20194;-76
2023/06/04 03:40:41;;;;;;;5.10;1.30;;;;;;;;;;5024134;28;20190;-76
2023/06/04 03:43:06;;;;;;;5.33;1.53;;;;;;;;;;5032862;28;20174;-76
2023/06/04 03:45:31;;;;;;;5.13;1.30;;;;;;;;;;5029863;28;20619;-76
2023/06/04 03:47:56;;;;;;;5.07;1.73;;;;;;;;;;5023740;28;20229;-76
2023/06/04 03:50:22;;;;;;;1.80;1.23;;;;;;;;;;5014973;28;20186;-76
2023/06/04 03:52:50;;;;;;;1.77;1.23;;;;;;;;;;5028593;28;20256;-76
2023/06/04 03:55:15;;;;;;;6.03;1.40;;;;;;;;;;5031994;28;20330;-74
2023/06/04 03:57:41;;;;;;;1.70;1.40;;;;;;;;;;5014632;28;20198;-75
2023/06/04 04:00:08;;;;;;;5.13;1.60;;;;;;;;;;5015004;28;20202;-75
2023/06/04 04:02:33;;;;;;;2.40;1.43;;;;;;;;;;5032926;28;20608;-75
2023/06/04 04:04:59;;;;;;;2.20;1.50;;;;;;;;;;5030700;28;20202;-75
2023/06/04 04:07:25;;;;;;;6.23;1.37;;;;;;;;;;5031670;28;20179;-75
2023/06/04 04:09:51;;;;;;;5.40;1.30;;;;;;;;;;5033086;28;20565;-75
2023/06/04 04:12:16;;;;;;;1.47;1.10;;;;;;;;;;5030286;28;20320;-75
2023/06/04 04:14:42;;;;;;;2.20;1.10;;;;;;;;;;5013207;28;20225;-75
2023/06/04 04:17:07;;;;;;;4.90;1.10;;;;;;;;;;5024807;28;20590;-75
2023/06/04 04:19:32;;;;;;;3.00;1.03;;;;;;;;;;5031126;28;20192;-75
2023/06/04 04:21:58;;;;;;;1.88;1.58;;;;;;;;;;5028815;28;20197;-76
2023/06/04 04:24:24;;;;;;;5.53;1.65;;;;;;;;;;5032420;28;20191;-75
2023/06/04 04:26:52;;;;;;;2.53;1.20;;;;;;;;;;5024361;28;20817;-76
2023/06/04 04:29:18;;;;;;;1.98;1.23;;;;;;;;;;5025690;28;20535;-76
2023/06/04 04:31:43;;;;;;;5.38;1.50;;;;;;;;;;5026030;28;20213;-76
2023/06/04 04:34:08;;;;;;;1.45;1.20;;;;;;;;;;5027995;28;20252;-76
2023/06/04 04:36:36;;;;;;;3.33;1.33;;;;;;;;;;5025701;28;20178;-76
2023/06/04 04:39:01;;;;;;;1.95;1.13;;;;;;;;;;5024533;28;20214;-75
2023/06/04 04:41:27;;;;;;;2.28;1.30;;;;;;;;;;5022893;28;20521;-76
2023/06/04 04:43:52;;;;;;;1.67;1.00;;;;;;;;;;5030846;28;20225;-76
2023/06/04 04:46:17;;;;;;;1.40;1.30;;;;;;;;;;5023478;28;20174;-76
2023/06/04 04:48:42;;;;;;;2.42;1.33;;;;;;;;;;5030836;28;20194;-76
2023/06/04 04:51:08;;;;;;;2.97;1.20;;;;;;;;;;5026047;28;20197;-76
2023/06/04 04:53:33;;;;;;;1.52;1.25;;;;;;;;;;5026304;28;20194;-76
2023/06/04 04:55:58;;;;;;;2.35;1.55;;;;;;;;;;5031566;28;20639;-76
2023/06/04 04:58:23;;;;;;;3.75;1.00;;;;;;;;;;5031031;28;20193;-76
2023/06/04 05:00:49;;;;;;;3.10;1.00;;;;;;;;;;5024836;28;20170;-76
2023/06/04 05:03:15;;;;;;;3.08;1.35;;;;;;;;;;5011070;28;20205;-75
2023/06/04 05:05:40;;;;;;;1.45;1.08;;;;;;;;;;5013173;28;20176;-75
2023/06/04 05:08:05;;;;;;;1.17;1.08;;;;;;;;;;5027387;28;20170;-75
2023/06/04 05:10:30;;;;;;;5.55;1.65;;;;;;;;;;5010417;28;20230;-76
2023/06/04 05:12:57;;;;;;;2.42;1.35;;;;;;;;;;5025199;28;20652;-75
2023/06/04 05:15:24;;;;;;;1.67;1.23;;;;;;;;;;5028487;28;20289;-75
2023/06/04 05:17:52;;;;;;;3.25;1.52;;;;;;;;;;5027932;28;20175;-75
2023/06/04 05:20:17;;;;;;;2.97;1.52;;;;;;;;;;5026361;28;20629;-76
2023/06/04 05:22:43;;;;;;;1.88;1.48;;;;;;;;;;5031885;28;20212;-75
2023/06/04 05:25:09;;;;;;;4.20;1.58;;;;;;;;;;5026689;28;20677;-76
2023/06/04 05:27:35;;;;;;;2.53;1.38;;;;;;;;;;5023696;28;20163;-75
2023/06/04 05:30:01;;;;;;;2.92;1.40;;;;;;;;;;5026157;28;20569;-75
2023/06/04 05:32:28;;;;;;;2.65;1.27;;;;;;;;;;5004492;28;20179;-76
2023/06/04 05:34:56;;;;;;;4.07;1.20;;;;;;;;;;5029498;28;20205;-75
2023/06/04 05:37:23;;;;;;;2.40;1.33;;;;;;;;;;5030300;28;20179;-76
2023/06/04 05:39:49;;;;;;;8.40;2.08;;;;;;;;;;5019104;28;20238;-76
2023/06/04 05:42:15;;;;;;;2.47;1.20;;;;;;;;;;5024091;28;20637;-77
2023/06/04 05:44:40;;;;;;;2.58;1.70;;;;;;;;;;5029940;28;20210;-76
2023/06/04 05:47:05;;;;;;;5.35;1.38;;;;;;;;;;5026004;28;20209;-76
2023/06/04 05:49:31;;;;;;;2.33;1.42;;;;;;;;;;5011578;28;20282;-76
2023/06/04 05:51:56;;;;;;;2.83;1.15;;;;;;;;;;5023363;28;20240;-76
2023/06/04 05:54:21;;;;;;;3.33;1.35;;;;;;;;;;5025729;28;20206;-76
2023/06/04 05:56:46;;;;;;;4.40;1.20;;;;;;;;;;5024526;28;20180;-76
2023/06/04 05:59:11;;;;;;;6.65;1.92;;;;;;;;;;5030604;28;20668;-75
2023/06/04 06:01:38;;;;;;;4.35;1.48;;;;;;;;;;5031586;28;20182;-76
2023/06/04 06:04:03;;;;;;;2.38;1.48;;;;;;;;;;5044851;22;20229;-70
2023/06/04 06:06:28;;;;;;;1.98;1.23;;;;;;;;;;5034021;28;20240;-70
2023/06/04 06:08:53;;;;;;;3.55;1.05;;;;;;;;;;5013748;28;20640;-71
2023/06/04 06:11:18;;;;;;;3.65;1.42;;;;;;;;;;5033930;28;20178;-70
2023/06/04 06:13:44;;;;;;;4.78;1.95;;;;;;;;;;5029996;28;20356;-70
2023/06/04 06:16:09;;;;;;;2.17;1.20;;;;;;;;;;5031862;28;20648;-70
2023/06/04 06:18:34;;;;;;;2.30;1.13;;;;;;;;;;5029475;28;20217;-70
2023/06/04 06:20:59;;;;;;;4.38;1.38;;;;;;;;;;5032881;28;20170;-70
2023/06/04 06:23:24;;;;;;;2.20;1.48;;;;;;;;;;5032820;28;20178;-70
2023/06/04 06:25:51;;;;;;;3.40;1.83;;;;;;;;;;5032711;28;20178;-70
2023/06/04 06:28:17;;;;;;;4.63;1.52;;;;;;;;;;5013744;28;20178;-71
2023/06/04 06:30:42;;;;;;;2.63;1.48;;;;;;;;;;5024322;28;20651;-71
2023/06/04 06:33:08;;;;;;;3.50;1.27;;;;;;;;;;5030516;28;20289;-70
2023/06/04 06:35:33;;;;;;;2.50;1.30;;;;;;;;;;5029705;28;20194;-71
2023/06/04 06:37:58;;;;;;;4.20;1.42;;;;;;;;;;5032316;28;20225;-71
2023/06/04 06:40:23;;;;;;;2.35;0.95;;;;;;;;;;5032797;28;20210;-70
2023/06/04 06:42:50;;;;;;;2.83;1.40;;;;;;;;;;5022969;28;20374;-71
2023/06/04 06:45:16;;;;;;;4.07;2.08;;;;;;;;;;5010222;28;20727;-71
2023/06/04 06:47:41;;;;;;;3.38;1.20;;;;;;;;;;5030521;28;20178;-71
2023/06/04 06:50:06;;;;;;;2.42;1.08;;;;;;;;;;5032656;28;20249;-69
2023/06/04 06:52:32;;;;;;;5.45;1.52;;;;;;;;;;5027488;28;20265;-70
2023/06/04 06:54:57;;;;;;;5.75;1.65;;;;;;;;;;5030705;28;20195;-71
2023/06/04 06:57:22;;;;;;;4.25;1.25;;;;;;;;;;5032401;28;20177;-70
2023/06/04 06:59:48;;;;;;;4.45;1.42;;;;;;;;;;5032444;28;20285;-70
2023/06/04 07:02:13;;;;;;;2.13;1.25;;;;;;;;;;5021467;28;20557;-68
2023/06/04 07:04:38;;;;;;;1.85;1.10;;;;;;;;;;5028357;28;20332;-69
2023/06/04 07:07:03;;;;;;;2.10;1.40;;;;;;;;;;5024712;28;20191;-68
2023/06/04 07:09:28;;;;;;;3.63;1.55;;;;;;;;;;5023413;28;20189;-69
2023/06/04 07:11:54;;;;;;;3.65;1.27;;;;;;;;;;5028799;28;20265;-69
2023/06/04 07:14:20;;;;;;;4.10;1.10;;;;;;;;;;5028620;28;20201;-69
2023/06/04 07:16:45;;;;;;;3.40;1.10;;;;;;;;;;5032806;28;20620;-70
2023/06/04 07:19:10;;;;;;;3.78;1.30;;;;;;;;;;5030693;28;20281;-70
2023/06/04 07:21:35;;;;;;;2.35;1.40;;;;;;;;;;5008033;28;20182;-70
2023/06/04 07:24:01;;;;;;;3.00;1.20;;;;;;;;;;5030789;28;20318;-69
2023/06/04 07:26:30;;;;;;;2.03;1.15;;;;;;;;;;5026741;28;20424;-69
2023/06/04 07:28:55;;;;;;;6.50;1.83;;;;;;;;;;5034506;28;20175;-70
2023/06/04 07:31:20;;;;;;;2.60;1.30;;;;;;;;;;5027004;28;20262;-68
2023/06/04 07:33:45;;;;;;;3.78;1.40;;;;;;;;;;5031577;28;20202;-70
2023/06/04 07:36:12;;;;;;;1.83;1.20;;;;;;;;;;5031218;28;20579;-69
2023/06/04 07:38:37;;;;;;;5.68;1.58;;;;;;;;;;5032107;28;20455;-70
2023/06/04 07:41:02;;;;;;;2.03;1.10;;;;;;;;;;5029339;28;20674;-69
2023/06/04 07:43:27;;;;;;;2.00;0.97;;;;;;;;;;5027072;28;20190;-69
2023/06/04 07:45:53;;;;;;;3.80;1.40;;;;;;;;;;5025883;28;20429;-70
2023/06/04 07:48:18;;;;;;;2.50;1.07;;;;;;;;;;5022633;28;20787;-69
2023/06/04 07:50:43;;;;;;;4.00;1.53;;;;;;;;;;5023790;28;20485;-70
2023/06/04 07:53:08;;;;;;;3.33;1.27;;;;;;;;;;5028680;28;20423;-69
2023/06/04 07:55:34;;;;;;;4.10;1.30;;;;;;;;;;5008935;28;20269;-70
2023/06/04 07:58:00;;;;;;;1.10;0.90;;;;;;;;;;5027151;28;20205;-69
2023/06/04 08:00:25;;;;;;;2.28;1.10;;;;;;;;;;5030993;28;20234;-69
2023/06/04 08:02:50;;;;;;;5.07;1.43;;;;;;;;;;5022583;28;20593;-69
2023/06/04 08:05:15;;;;;;;1.83;0.93;;;;;;;;;;5030582;28;20486;-70
2023/06/04 08:07:41;;;;;;;1.63;1.02;;;;;;;;;;5031020;28;20202;-70
2023/06/04 08:10:06;;;;;;;2.20;0.98;;;;;;;;;;5019250;28;20640;-70
2023/06/04 08:12:32;;;;;;;1.20;0.93;;;;;;;;;;5023587;28;20201;-70
2023/06/04 08:14:57;;;;;;;4.00;1.17;;;;;;;;;;5030018;28;20247;-70
2023/06/04 08:17:23;;;;;;;2.08;0.82;;;;;;;;;;5014258;28;20411;-70
2023/06/04 08:19:48;;;;;;;3.53;1.08;;;;;;;;;;5030626;28;20209;-70
2023/06/04 08:22:13;;;;;;;2.23;1.03;;;;;;;;;;5010562;28;20174;-70
2023/06/04 08:24:39;;;;;;;3.40;1.47;;;;;;;;;;5028492;28;20545;-70
2023/06/04 08:27:04;;;;;;;2.33;1.25;;;;;;;;;;5012021;28;20511;-70
2023/06/04 08:29:29;;;;;;;1.55;0.80;;;;;;;;;;5028320;28;20266;-69
2023/06/04 08:31:55;;;;;;;1.93;0.77;;;;;;;;;;5023749;28;20297;-70
2023/06/04 08:34:20;;;;;;;1.95;0.82;;;;;;;;;;5022850;28;20507;-69
2023/06/04 08:36:46;;;;;;;2.07;0.77;;;;;;;;;;5012224;28;20166;-69
2023/06/04 08:39:11;;;;;;;2.05;0.90;;;;;;;;;;5030784;28;20490;-70
2023/06/04 08:41:51;;;;;;;1.45;0.88;;;;;;;;;;5030008;28;20790;-69
2023/06/04 08:44:17;;;;;;;1.13;0.80;;;;;;;;;;5026084;28;20198;-69
2023/06/04 08:46:43;;;;;;;1.55;0.50;;;;;;;;;;5005519;28;20787;-70
2023/06/04 08:49:08;;;;;;;3.45;0.70;;;;;;;;;;5010181;28;20269;-69
2023/06/04 08:51:37;;;;;;;2.05;0.70;;;;;;;;;;5026410;28;20640;-69
2023/06/04 08:54:03;;;;;;;5.22;0.95;;;;;;;;;;5011851;28;20212;-70
2023/06/04 08:56:32;;;;;;;2.15;0.60;;;;;;;;;;5024447;28;20182;-70
2023/06/04 08:59:01;;;;;;;4.57;1.02;;;;;;;;;;5025348;28;20212;-70
2023/06/04 09:01:26;;;;;;;1.10;0.60;;;;;;;;;;5027657;28;20178;-74
2023/06/04 09:03:51;;;;;;;2.45;1.08;;;;;;;;;;5010461;28;20252;-73
2023/06/04 09:06:17;;;;;;;3.78;1.30;;;;;;;;;;5014710;28;20189;-75
2023/06/04 09:08:43;;;;;;;1.50;0.93;;;;;;;;;;5010201;28;20179;-74
2023/06/04 09:11:11;;;;;;;2.33;0.70;;;;;;;;;;5016545;28;20190;-74
2023/06/04 09:13:36;;;;;;;2.00;0.80;;;;;;;;;;5008441;28;20201;-75
2023/06/04 09:16:02;;;;;;;2.22;0.80;;;;;;;;;;5013680;28;20636;-74
2023/06/04 09:18:27;;;;;;;1.08;0.52;;;;;;;;;;5022793;28;20263;-75
2023/06/04 09:21:02;;;;;;;2.45;1.00;;;;;;;;;;5024822;28;20261;-75
2023/06/04 09:23:27;;;;;;;2.75;0.88;;;;;;;;;;5023963;28;20670;-75
2023/06/04 09:25:53;;;;;;;3.75;0.90;;;;;;;;;;5007562;28;20180;-74
2023/06/04 09:28:20;;;;;;;2.78;0.80;;;;;;;;;;5029092;28;20206;-74
2023/06/04 09:30:52;;;;;;;2.42;0.65;;;;;;;;;;5027580;28;20206;-73
2023/06/04 09:33:17;;;;;;;1.08;0.70;;;;;;;;;;5005901;28;20630;-74
2023/06/04 09:35:52;;;;;;;1.80;0.65;;;;;;;;;;5002835;28;20219;-74
2023/06/04 09:38:17;;;;;;;1.95;0.60;;;;;;;;;;5034329;28;20170;-74
2023/06/04 09:40:42;;;;;;;0.83;0.63;;;;;;;;;;5025086;28;20718;-75
2023/06/04 09:43:10;;;;;;;1.77;0.77;;;;;;;;;;5025951;28;20437;-73
2023/06/04 09:45:35;;;;;;;2.40;0.40;;;;;;;;;;5032422;28;20477;-74
2023/06/04 09:48:02;;;;;;;1.27;0.60;;;;;;;;;;5033030;28;20660;-75
2023/06/04 09:50:31;;;;;;;1.17;0.55;;;;;;;;;;5033533;28;20198;-74
2023/06/04 09:52:57;;;;;;;2.25;1.27;;;;;;;;;;5015174;28;20171;-74
2023/06/04 09:55:22;;;;;;;2.03;0.55;;;;;;;;;;5031934;28;20201;-73
2023/06/04 09:57:49;;;;;;;2.40;0.95;;;;;;;;;;5008002;28;21551;-75
2023/06/04 10:00:16;;;;;;;1.15;0.68;;;;;;;;;;5010152;28;20201;-74
2023/06/04 10:02:42;;;;;;;2.10;0.38;;;;;;;;;;5014547;28;20317;-74
2023/06/04 10:05:09;;;;;;;0.98;0.52;;;;;;;;;;5028538;28;20215;-73
2023/06/04 10:07:36;;;;;;;1.05;0.47;;;;;;;;;;5030666;28;20174;-73
2023/06/04 10:10:01;;;;;;;1.52;0.77;;;;;;;;;;5028225;28;20218;-72
2023/06/04 10:12:30;;;;;;;1.02;0.68;;;;;;;;;;5014142;28;20170;-73
2023/06/04 10:15:16;;;;;;;1.00;0.70;;;;;;;;;;5019625;28;20202;-73
2023/06/04 10:17:41;;;;;;;6.13;0.80;;;;;;;;;;5027353;28;20587;-73
2023/06/04 10:20:08;;;;;;;6.03;0.70;;;;;;;;;;5022516;28;20261;-74
2023/06/04 10:22:33;;;;;;;1.50;0.80;;;;;;;;;;5030469;28;20280;-75
2023/06/04 10:25:00;;;;;;;1.20;0.70;;;;;;;;;;5027359;28;20281;-75
2023/06/04 10:27:25;;;;;;;6.63;0.50;;;;;;;;;;5027725;28;20706;-74
2023/06/04 10:29:52;;;;;;;4.63;0.73;;;;;;;;;;5025955;28;20203;-71
2023/06/04 10:32:17;;;;;;;5.28;0.80;;;;;;;;;;5024244;28;20171;-74
2023/06/04 10:34:43;;;;;;;2.55;0.70;;;;;;;;;;5032004;28;20256;-74
2023/06/04 10:37:18;;;;;;;3.90;0.80;;;;;;;;;;5016730;28;20265;-74
2023/06/04 10:39:49;;;;;;;1.70;0.43;;;;;;;;;;5029493;28;20182;-74
2023/06/04 10:42:16;;;;;;;1.80;0.70;;;;;;;;;;5011471;28;20183;-74
2023/06/04 10:44:46;;;;;;;1.40;0.60;;;;;;;;;;5023759;28;20751;-75
2023/06/04 10:47:18;;;;;;;0.63;0.47;;;;;;;;;;5029126;28;20183;-74
2023/06/04 10:49:43;;;;;;;1.17;0.70;;;;;;;;;;5015631;28;20306;-73
2023/06/04 10:52:11;;;;;;;1.30;0.70;;;;;;;;;;5029266;28;20273;-74
2023/06/04 10:54:36;;;;;;;5.00;1.00;;;;;;;;;;5028472;28;20462;-74
2023/06/04 10:57:15;;;;;;;1.50;0.73;;;;;;;;;;5016328;28;20202;-74
2023/06/04 10:59:40;;;;;;;4.25;0.70;;;;;;;;;;5028912;28;20182;-74
2023/06/04 11:02:06;;;;;;;4.82;0.95;;;;;;;;;;5011323;28;20205;-74
2023/06/04 11:04:32;;;;;;;4.00;1.00;;;;;;;;;;5028297;28;20271;-74
2023/06/04 11:07:04;;;;;;;2.85;0.73;;;;;;;;;;5027309;28;20618;-75
2023/06/04 11:09:29;;;;;;;2.40;0.70;;;;;;;;;;5026374;28;20214;-75
2023/06/04 11:11:59;;;;;;;0.65;0.50;;;;;;;;;;5008036;28;20614;-74
2023/06/04 11:14:24;;;;;;;2.22;0.60;;;;;;;;;;5026905;28;20262;-73
2023/06/04 11:16:50;;;;;;;2.47;1.02;;;;;;;;;;5030924;28;20209;-74
2023/06/04 11:19:15;;;;;;;4.28;1.00;;;;;;;;;;5011509;28;20178;-74
2023/06/04 11:21:40;;;;;;;1.73;0.60;;;;;;;;;;5014869;28;20198;-75
2023/06/04 11:24:06;;;;;;;2.42;0.80;;;;;;;;;;5012876;28;20891;-75
2023/06/04 11:26:35;;;;;;;3.20;0.73;;;;;;;;;;5011505;28;20568;-74
2023/06/04 11:29:01;;;;;;;1.23;0.60;;;;;;;;;;5028047;28;20195;-75
2023/06/04 11:31:26;;;;;;;2.67;0.88;;;;;;;;;;5028494;28;20641;-75
2023/06/04 11:33:52;;;;;;;2.95;0.95;;;;;;;;;;5028495;28;20202;-74
2023/06/04 11:36:25;;;;;;;2.03;0.75;;;;;;;;;;5028695;28;20653;-74
2023/06/04 11:38:57;;;;;;;2.83;1.35;;;;;;;;;;5026919;28;20220;-74
2023/06/04 11:41:23;;;;;;;3.22;0.90;;;;;;;;;;5021645;28;20632;-74
2023/06/04 11:43:48;;;;;;;2.58;0.88;;;;;;;;;;5008861;28;20222;-74
2023/06/04 11:46:14;;;;;;;2.67;1.15;;;;;;;;;;5025642;28;20186;-74
2023/06/04 11:48:39;;;;;;;2.00;0.73;;;;;;;;;;5028486;28;20273;-74
2023/06/04 11:51:06;;;;;;;1.52;0.85;;;;;;;;;;5007640;28;20637;-74
2023/06/04 11:53:32;;;;;;;1.27;0.75;;;;;;;;;;5028995;28;20202;-75
2023/06/04 11:55:57;;;;;;;3.80;1.33;;;;;;;;;;5009114;28;20174;-75
2023/06/04 11:58:23;;;;;;;2.35;0.88;;;;;;;;;;5031819;28;20534;-75
2023/06/04 12:00:49;;;;;;;1.27;0.70;;;;;;;;;;5027589;28;20174;-74
2023/06/04 12:03:14;;;;;;;1.95;0.70;;;;;;;;;;5010718;28;20636;-75
2023/06/04 12:05:39;;;;;;;2.20;1.07;;;;;;;;;;5036154;22;20397;-67
2023/06/04 12:08:06;;;;;;;0.93;0.60;;;;;;;;;;5038424;28;20247;-68
2023/06/04 12:10:36;;;;;;;1.98;0.60;;;;;;;;;;5028948;28;20198;-68
2023/06/04 12:13:01;;;;;;;1.58;1.15;;;;;;;;;;5041125;28;20212;-67
2023/06/04 12:15:26;;;;;;;4.90;0.70;;;;;;;;;;5029474;28;20202;-68
2023/06/04 12:17:52;;;;;;;1.63;1.13;;;;;;;;;;5026076;28;20461;-68
2023/06/04 12:20:18;;;;;;;1.88;0.95;;;;;;;;;;5009755;28;20586;-68
2023/06/04 12:22:45;;;;;;;2.80;1.00;;;;;;;;;;5027073;28;20178;-67
2023/06/04 12:25:10;;;;;;;1.75;0.60;;;;;;;;;;5014242;28;20208;-67
2023/06/04 12:27:46;;;;;;;3.00;1.00;;;;;;;;;;5032753;28;20186;-68
2023/06/04 12:30:11;;;;;;;1.50;1.00;;;;;;;;;;5026378;28;20742;-70
2023/06/04 12:32:36;;;;;;;1.77;1.13;;;;;;;;;;5030346;28;20188;-69
2023/06/04 12:35:02;;;;;;;2.08;1.35;;;;;;;;;;5028802;28;20205;-68
2023/06/04 12:37:27;;;;;;;6.45;1.35;;;;;;;;;;5025866;28;20174;-69
2023/06/04 12:39:53;;;;;;;2.55;1.20;;;;;;;;;;5026474;28;20174;-68
2023/06/04 12:42:20;;;;;;;4.22;1.08;;;;;;;;;;5032748;28;20178;-69
2023/06/04 12:44:45;;;;;;;2.33;0.98;;;;;;;;;;5030826;28;20232;-68
2023/06/04 12:47:11;;;;;;;2.63;1.33;;;;;;;;;;5031357;28;20997;-68
2023/06/04 12:49:36;;;;;;;1.58;0.75;;;;;;;;;;5011791;28;20210;-69
2023/06/04 12:52:01;;;;;;;2.65;0.90;;;;;;;;;;5031062;28;20174;-68
2023/06/04 12:54:27;;;;;;;4.50;1.80;;;;;;;;;;5029096;28;20210;-68
2023/06/04 12:56:52;;;;;;;2.72;1.15;;;;;;;;;;5027675;28;20433;-68
2023/06/04 12:59:18;;;;;;;2.97;1.38;;;;;;;;;;5023664;28;20716;-70
2023/06/04 13:01:43;;;;;;;3.35;1.13;;;;;;;;;;5032229;28;20174;-68
2023/06/04 13:04:08;;;;;;;2.73;0.90;;;;;;;;;;5030877;28;20210;-67
2023/06/04 13:06:34;;;;;;;4.53;1.13;;;;;;;;;;5029220;28;20424;-68
2023/06/04 13:09:00;;;;;;;3.15;1.55;;;;;;;;;;5030085;28;20209;-68
2023/06/04 13:11:25;;;;;;;3.30;1.10;;;;;;;;;;5024167;28;20551;-70
2023/06/04 13:13:50;;;;;;;2.55;0.95;;;;;;;;;;5033689;28;20170;-69
2023/06/04 13:16:16;;;;;;;1.80;1.00;;;;;;;;;;5034040;28;20186;-68
2023/06/04 13:18:41;;;;;;;3.10;1.77;;;;;;;;;;5035332;28;20186;-69
2023/06/04 13:21:06;;;;;;;4.13;1.27;;;;;;;;;;5031050;28;20463;-68
2023/06/04 13:23:31;;;;;;;5.00;1.35;;;;;;;;;;5025611;28;20193;-68
2023/06/04 13:25:57;;;;;;;2.35;1.02;;;;;;;;;;5028146;28;20217;-69
2023/06/04 13:28:22;;;;;;;2.10;1.02;;;;;;;;;;5034516;28;20235;-69
2023/06/04 13:30:48;;;;;;;5.07;1.10;;;;;;;;;;5031586;28;20210;-68
2023/06/04 13:33:13;;;;;;;4.97;1.08;;;;;;;;;;5035272;28;20170;-68
2023/06/04 13:35:38;;;;;;;4.43;1.25;;;;;;;;;;5027221;28;20210;-68
2023/06/04 13:38:04;;;;;;;3.85;1.67;;;;;;;;;;5030635;28;20191;-68
2023/06/04 13:40:29;;;;;;;2.85;0.85;;;;;;;;;;5030511;28;20197;-69
2023/06/04 13:42:55;;;;;;;2.80;1.38;;;;;;;;;;5032431;28;20233;-68
2023/06/04 13:45:20;;;;;;;3.78;1.15;;;;;;;;;;5034027;28;20206;-68
2023/06/04 13:47:48;;;;;;;3.67;0.90;;;;;;;;;;5036220;28;20185;-68
2023/06/04 13:50:14;;;;;;;2.55;1.00;;;;;;;;;;5033146;28;20198;-69
2023/06/04 13:52:39;;;;;;;2.80;0.95;;;;;;;;;;5033309;28;20186;-68
2023/06/04 13:55:05;;;;;;;3.53;1.05;;;;;;;;;;5030456;28;20201;-68
2023/06/04 13:57:31;;;;;;;3.38;1.00;;;;;;;;;;5031941;28;20166;-68
2023/06/04 13:59:56;;;;;;;3.35;1.23;;;;;;;;;;5014837;28;20193;-68
2023/06/04 14:02:21;;;;;;;4.35;1.08;;;;;;;;;;5027200;28;20544;-69
2023/06/04 14:04:46;;;;;;;6.73;1.23;;;;;;;;;;5031707;28;20218;-68
2023/06/04 14:07:11;;;;;;;3.15;1.30;;;;;;;;;;5026616;28;20488;-68
2023/06/04 14:09:37;;;;;;;2.73;1.10;;;;;;;;;;5032692;28;20425;-69
2023/06/04 14:12:02;;;;;;;2.53;1.03;;;;;;;;;;5033413;28;20445;-68
2023/06/04 14:14:30;;;;;;;2.97;1.10;;;;;;;;;;5030735;28;20443;-68
2023/06/04 14:16:56;;;;;;;1.63;0.93;;;;;;;;;;5031842;28;20202;-68
2023/06/04 14:19:21;;;;;;;3.55;1.02;;;;;;;;;;5027943;28;20260;-68
2023/06/04 14:21:47;;;;;;;3.93;1.07;;;;;;;;;;5032101;28;20190;-68
2023/06/04 14:24:12;;;;;;;6.97;1.20;;;;;;;;;;5031066;28;20458;-68
2023/06/04 14:26:37;;;;;;;2.78;0.88;;;;;;;;;;5008777;28;20431;-69
2023/06/04 14:29:02;;;;;;;5.28;1.00;;;;;;;;;;5033337;28;20312;-69
2023/06/04 14:31:28;;;;;;;2.17;1.20;;;;;;;;;;5015999;28;20178;-69
2023/06/04 14:33:53;;;;;;;3.83;1.73;;;;;;;;;;5031133;28;20435;-68
2023/06/04 14:36:18;;;;;;;1.92;1.23;;;;;;;;;;5031788;28;20287;-69